sensor_id;sensor_type;location;lat;lon;timestamp;pressure;altitude;pressure_sealevel;temperature;humidity
27304;BME280;14791;52.392;13.092;2023-04-29T00:01:05;100515.17;;;19.01;40.70
27304;BME280;14791;52.392;13.092;2023-04-29T00:03:34;100513.80;;;18.97;40.73
27304;BME280;14791;52.392;13.092;2023-04-29T00:06:03;100513.25;;;18.93;40.88
27304;BME280;14791;52.392;13.092;2023-04-29T00:08:32;100514.55;;;18.89;40.98
27304;BME280;14791;52.392;13.092;2023-04-29T00:11:01;100512.53;;;18.87;41.02
27304;BME280;14791;52.392;13.092;2023-04-29T00:13:30;100515.52;;;18.84;41.02
27304;BME280;14791;52.392;13.092;2023-04-29T00:15:59;100511.64;;;18.82;41.05
27304;BME280;14791;52.392;13.092;2023-04-29T00:18:27;100513.64;;;18.80;41.15
27304;BME280;14791;52.392;13.092;2023-04-29T00:20:57;100508.88;;;18.78;41.24
27304;BME280;14791;52.392;13.092;2023-04-29T00:23:26;100494.51;;;18.78;41.27
27304;BME280;14791;52.392;13.092;2023-04-29T00:25:54;100501.27;;;18.78;41.25
27304;BME280;14791;52.392;13.092;2023-04-29T00:28:24;100509.53;;;18.76;41.46
27304;BME280;14791;52.392;13.092;2023-04-29T00:30:52;100512.23;;;18.76;41.63
27304;BME280;14791;52.392;13.092;2023-04-29T00:33:23;100514.06;;;18.76;41.85
27304;BME280;14791;52.392;13.092;2023-04-29T00:35:52;100516.58;;;18.73;42.00
27304;BME280;14791;52.392;13.092;2023-04-29T00:38:20;100518.58;;;18.71;41.99
27304;BME280;14791;52.392;13.092;2023-04-29T00:40:49;100510.78;;;18.68;42.37
27304;BME280;14791;52.392;13.092;2023-04-29T00:43:19;100510.41;;;18.67;42.68
27304;BME280;14791;52.392;13.092;2023-04-29T00:45:48;100510.41;;;18.67;43.33
27304;BME280;14791;52.392;13.092;2023-04-29T00:48:17;100503.64;;;18.67;43.37
27304;BME280;14791;52.392;13.092;2023-04-29T00:50:46;100497.06;;;18.65;43.48
27304;BME280;14791;52.392;13.092;2023-04-29T00:53:15;100501.11;;;18.65;43.48
27304;BME280;14791;52.392;13.092;2023-04-29T00:55:45;100498.41;;;18.65;43.60
27304;BME280;14791;52.392;13.092;2023-04-29T00:58:16;100504.47;;;18.63;43.74
27304;BME280;14791;52.392;13.092;2023-04-29T01:00:47;100496.30;;;18.59;43.85
27304;BME280;14791;52.392;13.092;2023-04-29T01:03:17;100493.06;;;18.56;43.92
27304;BME280;14791;52.392;13.092;2023-04-29T01:05:49;100502.30;;;18.53;43.92
27304;BME280;14791;52.392;13.092;2023-04-29T01:11:10;100500.36;;;18.45;44.08
27304;BME280;14791;52.392;13.092;2023-04-29T01:13:47;100506.39;;;18.39;44.31
27304;BME280;14791;52.392;13.092;2023-04-29T01:19:01;100504.73;;;18.28;44.74
27304;BME280;14791;52.392;13.092;2023-04-29T01:21:31;100508.58;;;18.26;44.74
27304;BME280;14791;52.392;13.092;2023-04-29T01:24:01;100510.58;;;18.24;44.69
27304;BME280;14791;52.392;13.092;2023-04-29T01:26:32;100512.30;;;18.25;44.82
27304;BME280;14791;52.392;13.092;2023-04-29T01:29:19;100503.34;;;18.24;44.89
27304;BME280;14791;52.392;13.092;2023-04-29T01:31:57;100504.33;;;18.23;44.89
27304;BME280;14791;52.392;13.092;2023-04-29T01:34:29;100503.12;;;18.22;44.94
27304;BME280;14791;52.392;13.092;2023-04-29T01:37:04;100497.87;;;18.20;45.02
27304;BME280;14791;52.392;13.092;2023-04-29T01:39:45;100493.97;;;18.19;45.12
27304;BME280;14791;52.392;13.092;2023-04-29T01:42:23;100489.20;;;18.17;45.23
27304;BME280;14791;52.392;13.092;2023-04-29T01:44:56;100497.28;;;18.13;45.22
27304;BME280;14791;52.392;13.092;2023-04-29T01:47:28;100496.58;;;18.11;45.26
27304;BME280;14791;52.392;13.092;2023-04-29T01:49:58;100498.06;;;18.09;45.40
27304;BME280;14791;52.392;13.092;2023-04-29T01:52:29;100495.87;;;18.09;45.46
27304;BME280;14791;52.392;13.092;2023-04-29T01:54:59;100490.61;;;18.07;45.51
27304;BME280;14791;52.392;13.092;2023-04-29T01:57:29;100493.30;;;18.07;45.67
27304;BME280;14791;52.392;13.092;2023-04-29T02:00:09;100497.22;;;18.09;45.71
27304;BME280;14791;52.392;13.092;2023-04-29T02:02:40;100491.11;;;18.06;45.90
27304;BME280;14791;52.392;13.092;2023-04-29T02:05:10;100491.62;;;18.06;45.99
27304;BME280;14791;52.392;13.092;2023-04-29T02:07:41;100490.61;;;18.07;46.13
27304;BME280;14791;52.392;13.092;2023-04-29T02:10:11;100487.77;;;18.09;46.05
27304;BME280;14791;52.392;13.092;2023-04-29T02:12:41;100489.11;;;18.09;46.08
27304;BME280;14791;52.392;13.092;2023-04-29T02:15:10;100479.99;;;18.10;46.04
27304;BME280;14791;52.392;13.092;2023-04-29T02:17:39;100484.41;;;18.11;46.10
27304;BME280;14791;52.392;13.092;2023-04-29T02:20:08;100483.06;;;18.11;46.15
27304;BME280;14791;52.392;13.092;2023-04-29T02:22:37;100487.12;;;18.11;46.26
27304;BME280;14791;52.392;13.092;2023-04-29T02:25:07;100475.80;;;18.11;46.37
27304;BME280;14791;52.392;13.092;2023-04-29T02:27:35;100480.56;;;18.13;46.39
27304;BME280;14791;52.392;13.092;2023-04-29T02:30:06;100485.46;;;18.14;46.39
27304;BME280;14791;52.392;13.092;2023-04-29T02:32:35;100479.04;;;18.15;46.35
27304;BME280;14791;52.392;13.092;2023-04-29T02:35:06;100482.75;;;18.14;46.46
27304;BME280;14791;52.392;13.092;2023-04-29T02:37:35;100491.57;;;18.16;46.46
27304;BME280;14791;52.392;13.092;2023-04-29T02:40:05;100484.81;;;18.16;46.51
27304;BME280;14791;52.392;13.092;2023-04-29T02:42:34;100482.31;;;18.18;46.48
27304;BME280;14791;52.392;13.092;2023-04-29T02:45:03;100481.47;;;18.18;46.50
27304;BME280;14791;52.392;13.092;2023-04-29T02:47:32;100481.47;;;18.18;46.59
27304;BME280;14791;52.392;13.092;2023-04-29T02:50:01;100479.74;;;18.17;46.51
27304;BME280;14791;52.392;13.092;2023-04-29T02:52:32;100481.60;;;18.16;46.58
27304;BME280;14791;52.392;13.092;2023-04-29T02:55:01;100480.39;;;18.15;46.67
27304;BME280;14791;52.392;13.092;2023-04-29T02:57:30;100474.65;;;18.14;46.69
27304;BME280;14791;52.392;13.092;2023-04-29T02:59:59;100473.30;;;18.14;46.81
27304;BME280;14791;52.392;13.092;2023-04-29T03:02:28;100475.16;;;18.13;46.88
27304;BME280;14791;52.392;13.092;2023-04-29T03:04:58;100474.31;;;18.13;46.92
27304;BME280;14791;52.392;13.092;2023-04-29T03:07:27;100478.50;;;18.11;46.96
27304;BME280;14791;52.392;13.092;2023-04-29T03:09:57;100470.91;;;18.11;46.98
27304;BME280;14791;52.392;13.092;2023-04-29T03:12:26;100473.41;;;18.08;47.08
27304;BME280;14791;52.392;13.092;2023-04-29T03:14:55;100472.19;;;18.06;47.12
27304;BME280;14791;52.392;13.092;2023-04-29T03:17:24;100472.50;;;18.03;47.22
27304;BME280;14791;52.392;13.092;2023-04-29T03:19:53;100472.13;;;18.02;47.35
27304;BME280;14791;52.392;13.092;2023-04-29T03:22:22;100472.13;;;18.02;47.48
27304;BME280;14791;52.392;13.092;2023-04-29T03:24:51;100467.74;;;18.01;47.59
27304;BME280;14791;52.392;13.092;2023-04-29T03:27:20;100461.97;;;18.00;47.63
27304;BME280;14791;52.392;13.092;2023-04-29T03:29:50;100465.34;;;17.98;47.73
27304;BME280;14791;52.392;13.092;2023-04-29T03:32:19;100468.32;;;17.95;47.84
27304;BME280;14791;52.392;13.092;2023-04-29T03:34:48;100461.54;;;17.91;47.98
27304;BME280;14791;52.392;13.092;2023-04-29T03:37:25;100462.83;;;17.87;48.13
27304;BME280;14791;52.392;13.092;2023-04-29T03:39:55;100458.98;;;17.80;48.21
27304;BME280;14791;52.392;13.092;2023-04-29T03:42:24;100466.68;;;17.75;48.37
27304;BME280;14791;52.392;13.092;2023-04-29T03:44:53;100460.00;;;17.69;48.53
27304;BME280;14791;52.392;13.092;2023-04-29T03:47:22;100458.11;;;17.65;48.72
27304;BME280;14791;52.392;13.092;2023-04-29T03:49:51;100464.86;;;17.65;48.82
27304;BME280;14791;52.392;13.092;2023-04-29T03:52:20;100456.25;;;17.66;48.93
27304;BME280;14791;52.392;13.092;2023-04-29T03:54:50;100462.87;;;17.68;49.02
27304;BME280;14791;52.392;13.092;2023-04-29T03:57:19;100461.01;;;17.68;49.04
27304;BME280;14791;52.392;13.092;2023-04-29T03:59:49;100460.87;;;17.70;49.15
27304;BME280;14791;52.392;13.092;2023-04-29T04:02:18;100460.87;;;17.70;49.22
27304;BME280;14791;52.392;13.092;2023-04-29T04:04:47;100461.34;;;17.69;49.43
27304;BME280;14791;52.392;13.092;2023-04-29T04:07:16;100468.61;;;17.69;49.51
27304;BME280;14791;52.392;13.092;2023-04-29T04:09:46;100462.87;;;17.68;49.67
27304;BME280;14791;52.392;13.092;2023-04-29T04:12:15;100465.20;;;17.67;49.67
27304;BME280;14791;52.392;13.092;2023-04-29T04:14:44;100467.70;;;17.64;49.66
27304;BME280;14791;52.392;13.092;2023-04-29T04:17:13;100479.14;;;17.62;49.71
27304;BME280;14791;52.392;13.092;2023-04-29T04:19:42;100478.59;;;17.58;49.69
27304;BME280;14791;52.392;13.092;2023-04-29T04:22:11;100477.17;;;17.54;49.77
27304;BME280;14791;52.392;13.092;2023-04-29T04:24:42;100480.52;;;17.52;49.84
27304;BME280;14791;52.392;13.092;2023-04-29T04:27:11;100477.78;;;17.48;49.90
27304;BME280;14791;52.392;13.092;2023-04-29T04:29:41;100474.00;;;17.45;50.03
27304;BME280;14791;52.392;13.092;2023-04-29T04:32:12;100478.72;;;17.43;50.16
27304;BME280;14791;52.392;13.092;2023-04-29T04:34:41;100478.98;;;17.40;50.33
27304;BME280;14791;52.392;13.092;2023-04-29T04:37:10;100488.43;;;17.40;50.44
27304;BME280;14791;52.392;13.092;2023-04-29T04:39:39;100483.67;;;17.38;50.49
27304;BME280;14791;52.392;13.092;2023-04-29T04:42:10;100485.02;;;17.38;50.59
27304;BME280;14791;52.392;13.092;2023-04-29T04:44:39;100489.06;;;17.38;50.69
27304;BME280;14791;52.392;13.092;2023-04-29T04:47:09;100483.67;;;17.38;50.75
27304;BME280;14791;52.392;13.092;2023-04-29T04:49:43;100487.72;;;17.38;50.82
27304;BME280;14791;52.392;13.092;2023-04-29T04:52:12;100485.02;;;17.38;50.93
27304;BME280;14791;52.392;13.092;2023-04-29T04:54:44;100487.92;;;17.40;50.98
27304;BME280;14791;52.392;13.092;2023-04-29T04:57:15;100486.44;;;17.42;51.04
27304;BME280;14791;52.392;13.092;2023-04-29T04:59:45;100491.20;;;17.44;51.12
27304;BME280;14791;52.392;13.092;2023-04-29T05:02:14;100496.95;;;17.45;51.12
27304;BME280;14791;52.392;13.092;2023-04-29T05:04:43;100503.22;;;17.46;51.17
27304;BME280;14791;52.392;13.092;2023-04-29T05:07:13;100490.19;;;17.45;51.25
27304;BME280;14791;52.392;13.092;2023-04-29T05:09:44;100491.34;;;17.42;51.20
27304;BME280;14791;52.392;13.092;2023-04-29T05:12:13;100492.48;;;17.40;51.30
27304;BME280;14791;52.392;13.092;2023-04-29T05:14:42;100502.56;;;17.38;51.31
27304;BME280;14791;52.392;13.092;2023-04-29T05:17:11;100498.18;;;17.37;51.36
27304;BME280;14791;52.392;13.092;2023-04-29T05:19:40;100501.89;;;17.36;51.54
27304;BME280;14791;52.392;13.092;2023-04-29T05:22:10;100501.52;;;17.35;51.55
27304;BME280;14791;52.392;13.092;2023-04-29T05:24:41;100501.17;;;17.34;51.60
27304;BME280;14791;52.392;13.092;2023-04-29T05:27:09;100502.31;;;17.31;51.69
27304;BME280;14791;52.392;13.092;2023-04-29T05:29:39;100505.86;;;17.32;51.82
27304;BME280;14791;52.392;13.092;2023-04-29T05:32:07;100503.16;;;17.32;51.90
27304;BME280;14791;52.392;13.092;2023-04-29T05:34:37;100507.21;;;17.32;51.80
27304;BME280;14791;52.392;13.092;2023-04-29T05:37:06;100501.81;;;17.32;51.89
27304;BME280;14791;52.392;13.092;2023-04-29T05:39:36;100508.39;;;17.33;51.86
27304;BME280;14791;52.392;13.092;2023-04-29T05:42:07;100506.20;;;17.33;51.98
27304;BME280;14791;52.392;13.092;2023-04-29T05:44:38;100508.90;;;17.33;52.03
27304;BME280;14791;52.392;13.092;2023-04-29T05:47:07;100508.27;;;17.35;52.09
27304;BME280;14791;52.392;13.092;2023-04-29T05:49:36;100512.18;;;17.36;52.12
27304;BME280;14791;52.392;13.092;2023-04-29T05:52:05;100507.50;;;17.38;52.08
27304;BME280;14791;52.392;13.092;2023-04-29T05:54:35;100513.44;;;17.42;52.06
27304;BME280;14791;52.392;13.092;2023-04-29T05:57:04;100519.21;;;17.43;52.10
27304;BME280;14791;52.392;13.092;2023-04-29T05:59:34;100520.77;;;17.46;52.03
27304;BME280;14791;52.392;13.092;2023-04-29T06:02:04;100522.80;;;17.48;51.99
27304;BME280;14791;52.392;13.092;2023-04-29T06:04:35;100524.15;;;17.48;52.07
27304;BME280;14791;52.392;13.092;2023-04-29T06:07:06;100525.88;;;17.49;52.10
27304;BME280;14791;52.392;13.092;2023-04-29T06:09:40;100532.12;;;17.49;52.15
27304;BME280;14791;52.392;13.092;2023-04-29T06:12:10;100528.91;;;17.50;52.12
27304;BME280;14791;52.392;13.092;2023-04-29T06:14:41;100530.12;;;17.51;52.16
27304;BME280;14791;52.392;13.092;2023-04-29T06:17:10;100531.81;;;17.52;52.17
27304;BME280;14791;52.392;13.092;2023-04-29T06:19:39;100538.78;;;17.55;52.16
27304;BME280;14791;52.392;13.092;2023-04-29T06:22:10;100540.62;;;17.54;52.23
27304;BME280;14791;52.392;13.092;2023-04-29T06:24:40;100543.26;;;17.50;52.33
27304;BME280;14791;52.392;13.092;2023-04-29T06:27:11;100545.41;;;17.47;52.48
27304;BME280;14791;52.392;13.092;2023-04-29T06:29:40;100549.89;;;17.42;52.54
27304;BME280;14791;52.392;13.092;2023-04-29T06:32:09;100551.88;;;17.40;52.70
27304;BME280;14791;52.392;13.092;2023-04-29T06:34:40;100563.52;;;17.40;52.79
27304;BME280;14791;52.392;13.092;2023-04-29T06:37:11;100564.19;;;17.38;52.84
27304;BME280;14791;52.392;13.092;2023-04-29T06:39:42;100570.05;;;17.38;52.82
27304;BME280;14791;52.392;13.092;2023-04-29T06:42:21;100569.72;;;17.37;52.76
27304;BME280;14791;52.392;13.092;2023-04-29T06:45:07;100573.18;;;17.33;52.69
27304;BME280;14791;52.392;13.092;2023-04-29T06:47:38;100572.13;;;17.30;52.79
27304;BME280;14791;52.392;13.092;2023-04-29T06:50:15;100584.27;;;17.30;52.71
27304;BME280;14791;52.392;13.092;2023-04-29T06:52:44;100578.37;;;17.31;52.86
27304;BME280;14791;52.392;13.092;2023-04-29T06:55:13;100584.48;;;17.33;52.94
27304;BME280;14791;52.392;13.092;2023-04-29T06:57:43;100587.27;;;17.37;52.94
27304;BME280;14791;52.392;13.092;2023-04-29T07:00:13;100596.80;;;17.41;52.75
27304;BME280;14791;52.392;13.092;2023-04-29T07:02:43;100594.30;;;17.43;52.64
27304;BME280;14791;52.392;13.092;2023-04-29T07:05:12;100601.27;;;17.46;52.47
27304;BME280;14791;52.392;13.092;2023-04-29T07:07:42;100600.63;;;17.48;52.37
27304;BME280;14791;52.392;13.092;2023-04-29T07:10:11;100598.77;;;17.49;52.22
27304;BME280;14791;52.392;13.092;2023-04-29T07:12:40;100612.11;;;17.50;52.06
27304;BME280;14791;52.392;13.092;2023-04-29T07:15:09;100604.17;;;17.49;51.92
27304;BME280;14791;52.392;13.092;2023-04-29T07:17:38;100614.13;;;17.48;51.89
27304;BME280;14791;52.392;13.092;2023-04-29T07:20:08;100616.83;;;17.48;51.86
27304;BME280;14791;52.392;13.092;2023-04-29T07:22:38;100620.00;;;17.48;51.79
27304;BME280;14791;52.392;13.092;2023-04-29T07:25:07;100628.48;;;17.49;51.71
27304;BME280;14791;52.392;13.092;2023-04-29T07:27:38;100627.13;;;17.49;51.47
27304;BME280;14791;52.392;13.092;2023-04-29T07:30:08;100634.38;;;17.48;51.40
27304;BME280;14791;52.392;13.092;2023-04-29T07:32:36;100640.13;;;17.49;51.52
27304;BME280;14791;52.392;13.092;2023-04-29T07:35:06;100644.38;;;17.52;51.48
27304;BME280;14791;52.392;13.092;2023-04-29T07:37:36;100643.87;;;17.52;51.35
27304;BME280;14791;52.392;13.092;2023-04-29T07:40:06;100652.35;;;17.53;51.31
27304;BME280;14791;52.392;13.092;2023-04-29T07:42:35;100655.77;;;17.55;51.28
27304;BME280;14791;52.392;13.092;2023-04-29T07:45:06;100653.41;;;17.56;51.06
27304;BME280;14791;52.392;13.092;2023-04-29T07:47:35;100660.80;;;17.54;51.03
27304;BME280;14791;52.392;13.092;2023-04-29T07:50:05;100667.55;;;17.54;50.99
27304;BME280;14791;52.392;13.092;2023-04-29T07:52:34;100671.97;;;17.55;51.00
27304;BME280;14791;52.392;13.092;2023-04-29T07:55:03;100675.65;;;17.54;51.04
27304;BME280;14791;52.392;13.092;2023-04-29T07:57:32;100677.84;;;17.55;51.10
27304;BME280;14791;52.392;13.092;2023-04-29T08:00:02;100682.98;;;17.58;51.02
27304;BME280;14791;52.392;13.092;2023-04-29T08:02:32;100687.25;;;17.60;50.98
27304;BME280;14791;52.392;13.092;2023-04-29T08:05:03;100692.86;;;17.63;50.91
27304;BME280;14791;52.392;13.092;2023-04-29T08:07:31;100697.77;;;17.63;50.87
27304;BME280;14791;52.392;13.092;2023-04-29T08:10:01;100700.33;;;17.65;50.96
27304;BME280;14791;52.392;13.092;2023-04-29T08:12:30;100706.80;;;17.68;50.71
27304;BME280;14791;52.392;13.092;2023-04-29T08:15:01;100710.97;;;17.67;50.58
27304;BME280;14791;52.392;13.092;2023-04-29T08:17:30;100713.33;;;17.65;50.59
27304;BME280;14791;52.392;13.092;2023-04-29T08:19:59;100729.67;;;17.64;50.46
27304;BME280;14791;52.392;13.092;2023-04-29T08:22:28;100726.25;;;17.62;50.54
27304;BME280;14791;52.392;13.092;2023-04-29T08:24:57;100729.11;;;17.60;50.59
27304;BME280;14791;52.392;13.092;2023-04-29T08:27:26;100739.53;;;17.59;50.65
27304;BME280;14791;52.392;13.092;2023-04-29T08:29:55;100740.89;;;17.59;50.54
27304;BME280;14791;52.392;13.092;2023-04-29T08:32:24;100742.23;;;17.59;50.47
27304;BME280;14791;52.392;13.092;2023-04-29T08:34:53;100745.57;;;17.57;50.60
27304;BME280;14791;52.392;13.092;2023-04-29T08:37:23;100742.19;;;17.55;50.61
27304;BME280;14791;52.392;13.092;2023-04-29T08:39:51;100750.63;;;17.56;50.72
27304;BME280;14791;52.392;13.092;2023-04-29T08:42:28;100755.02;;;17.57;50.72
27304;BME280;14791;52.392;13.092;2023-04-29T08:44:53;100764.85;;;17.58;50.66
27304;BME280;14791;52.392;13.092;2023-04-29T08:47:22;100769.88;;;17.57;50.71
27304;BME280;14791;52.392;13.092;2023-04-29T08:49:52;100773.93;;;17.57;50.70
27304;BME280;14791;52.392;13.092;2023-04-29T08:52:21;100781.05;;;17.58;50.69
27304;BME280;14791;52.392;13.092;2023-04-29T08:54:50;100787.80;;;17.58;50.62
27304;BME280;14791;52.392;13.092;2023-04-29T08:57:20;100791.01;;;17.58;50.60
27304;BME280;14791;52.392;13.092;2023-04-29T08:59:50;100788.94;;;17.56;50.57
27304;BME280;14791;52.392;13.092;2023-04-29T09:02:19;100794.62;;;17.53;50.63
27304;BME280;14791;52.392;13.092;2023-04-29T09:05:04;100806.53;;;17.50;50.73
27304;BME280;14791;52.392;13.092;2023-04-29T09:07:35;100806.09;;;17.45;50.68
27304;BME280;14791;52.392;13.092;2023-04-29T09:10:04;100812.34;;;17.36;50.72
27304;BME280;14791;52.392;13.092;2023-04-29T09:12:33;100812.87;;;17.30;50.87
27304;BME280;14791;52.392;13.092;2023-04-29T09:15:03;100810.70;;;17.23;50.97
27304;BME280;14791;52.392;13.092;2023-04-29T09:17:43;100821.05;;;17.18;51.04
27304;BME280;14791;52.392;13.092;2023-04-29T09:23:01;100834.38;;;17.10;51.18
27304;BME280;14791;52.392;13.092;2023-04-29T09:25:26;100834.41;;;17.05;51.37
27304;BME280;14791;52.392;13.092;2023-04-29T09:27:55;100845.97;;;17.01;51.35
27304;BME280;14791;52.392;13.092;2023-04-29T09:30:24;100846.59;;;16.99;51.33
27304;BME280;14791;52.392;13.092;2023-04-29T09:33:05;100857.66;;;16.96;51.32
27304;BME280;14791;52.392;13.092;2023-04-29T09:35:34;100858.79;;;16.93;51.36
27304;BME280;14791;52.392;13.092;2023-04-29T09:38:11;100853.17;;;16.91;51.53
27304;BME280;14791;52.392;13.092;2023-04-29T09:40:42;100863.95;;;16.91;51.49
27304;BME280;14791;52.392;13.092;2023-04-29T09:43:13;100867.51;;;16.91;51.48
27304;BME280;14791;52.392;13.092;2023-04-29T09:45:44;100872.78;;;16.93;51.33
27304;BME280;14791;52.392;13.092;2023-04-29T09:48:14;100873.25;;;16.92;51.28
27304;BME280;14791;52.392;13.092;2023-04-29T09:50:44;100877.07;;;16.90;51.42
27304;BME280;14791;52.392;13.092;2023-04-29T09:53:27;100883.81;;;16.90;51.40
27304;BME280;14791;52.392;13.092;2023-04-29T09:56:00;100882.12;;;16.89;51.43
27304;BME280;14791;52.392;13.092;2023-04-29T09:58:31;100884.31;;;16.89;51.61
27304;BME280;14791;52.392;13.092;2023-04-29T10:01:07;100886.52;;;16.90;51.56
27304;BME280;14791;52.392;13.092;2023-04-29T10:03:38;100889.59;;;16.91;51.48
27304;BME280;14791;52.392;13.092;2023-04-29T10:06:07;100896.06;;;16.94;51.42
27304;BME280;14791;52.392;13.092;2023-04-29T10:08:36;100904.03;;;16.95;51.34
27304;BME280;14791;52.392;13.092;2023-04-29T10:11:09;100907.08;;;16.96;51.34
27304;BME280;14791;52.392;13.092;2023-04-29T10:13:41;100908.31;;;16.98;51.26
27304;BME280;14791;52.392;13.092;2023-04-29T10:16:28;100908.66;;;16.99;51.20
27304;BME280;14791;52.392;13.092;2023-04-29T10:18:59;100914.44;;;17.00;51.21
27304;BME280;14791;52.392;13.092;2023-04-29T10:21:30;100921.42;;;16.97;51.26
27304;BME280;14791;52.392;13.092;2023-04-29T10:24:01;100921.80;;;16.98;51.22
27304;BME280;14791;52.392;13.092;2023-04-29T10:26:31;100923.50;;;16.99;50.99
27304;BME280;14791;52.392;13.092;2023-04-29T10:29:04;100929.89;;;16.98;50.97
27304;BME280;14791;52.392;13.092;2023-04-29T10:31:36;100943.16;;;16.95;50.98
27304;BME280;14791;52.392;13.092;2023-04-29T10:34:06;100935.18;;;16.94;51.05
27304;BME280;14791;52.392;13.092;2023-04-29T10:36:36;100948.33;;;16.93;51.12
27304;BME280;14791;52.392;13.092;2023-04-29T10:39:08;100946.33;;;16.95;51.17
27304;BME280;14791;52.392;13.092;2023-04-29T10:41:45;100948.78;;;16.98;51.23
27304;BME280;14791;52.392;13.092;2023-04-29T10:44:14;100954.64;;;17.03;51.17
27304;BME280;14791;52.392;13.092;2023-04-29T10:46:43;100952.67;;;17.05;51.19
27304;BME280;14791;52.392;13.092;2023-04-29T10:49:12;100949.08;;;17.10;50.96
27304;BME280;14791;52.392;13.092;2023-04-29T10:51:42;100957.52;;;17.11;50.81
27304;BME280;14791;52.392;13.092;2023-04-29T10:54:16;100955.55;;;17.13;50.88
27304;BME280;14791;52.392;13.092;2023-04-29T10:56:51;100957.98;;;17.16;50.96
27304;BME280;14791;52.392;13.092;2023-04-29T10:59:43;100957.12;;;17.21;51.03
27304;BME280;14791;52.392;13.092;2023-04-29T11:01:52;100958.92;;;17.27;51.06
27304;BME280;14791;52.392;13.092;2023-04-29T11:04:22;100969.89;;;17.35;50.78
27304;BME280;14791;52.392;13.092;2023-04-29T11:06:53;100966.08;;;17.37;50.57
27304;BME280;14791;52.392;13.092;2023-04-29T11:09:27;100962.25;;;17.40;50.36
27304;BME280;14791;52.392;13.092;2023-04-29T11:11:58;100977.95;;;17.40;50.29
27304;BME280;14791;52.392;13.092;2023-04-29T11:14:48;100972.55;;;17.40;50.34
27304;BME280;14791;52.392;13.092;2023-04-29T11:17:15;100975.51;;;17.43;50.38
27304;BME280;14791;52.392;13.092;2023-04-29T11:19:46;100983.33;;;17.46;50.22
27304;BME280;14791;52.392;13.092;2023-04-29T11:27:38;100977.42;;;17.62;50.27
27304;BME280;14791;52.392;13.092;2023-04-29T11:30:09;100982.19;;;17.70;50.27
27304;BME280;14791;52.392;13.092;2023-04-29T11:32:40;100983.83;;;17.82;50.38
27304;BME280;14791;52.392;13.092;2023-04-29T11:35:10;100986.42;;;17.93;50.40
27304;BME280;14791;52.392;13.092;2023-04-29T11:37:41;100986.64;;;18.11;50.39
27304;BME280;14791;52.392;13.092;2023-04-29T11:40:12;100983.77;;;18.28;50.33
27304;BME280;14791;52.392;13.092;2023-04-29T11:42:46;100989.59;;;18.48;50.24
27304;BME280;14791;52.392;13.092;2023-04-29T11:45:19;100981.84;;;18.69;50.02
27304;BME280;14791;52.392;13.092;2023-04-29T11:47:48;100986.78;;;18.89;49.84
27304;BME280;14791;52.392;13.092;2023-04-29T11:50:17;100996.83;;;19.12;49.46
27304;BME280;14791;52.392;13.092;2023-04-29T11:52:47;100994.09;;;19.31;48.99
27304;BME280;14791;52.392;13.092;2023-04-29T11:55:18;101003.83;;;19.48;48.46
27304;BME280;14791;52.392;13.092;2023-04-29T11:57:49;101003.09;;;19.55;47.75
27304;BME280;14791;52.392;13.092;2023-04-29T12:00:19;101014.77;;;19.56;47.28
27304;BME280;14791;52.392;13.092;2023-04-29T12:02:48;101022.15;;;19.50;47.04
27304;BME280;14791;52.392;13.092;2023-04-29T12:05:16;101018.45;;;19.41;47.07
27304;BME280;14791;52.392;13.092;2023-04-29T12:07:45;101024.38;;;19.31;47.18
27304;BME280;14791;52.392;13.092;2023-04-29T12:10:16;101030.73;;;19.26;47.20
27304;BME280;14791;52.392;13.092;2023-04-29T12:12:45;101034.17;;;19.18;47.34
27304;BME280;14791;52.392;13.092;2023-04-29T12:15:14;101028.67;;;19.14;47.47
27304;BME280;14791;52.392;13.092;2023-04-29T12:17:43;101033.37;;;19.12;47.61
27304;BME280;14791;52.392;13.092;2023-04-29T12:20:13;101039.30;;;19.11;47.76
27304;BME280;14791;52.392;13.092;2023-04-29T12:22:43;101037.81;;;19.13;47.72
27304;BME280;14791;52.392;13.092;2023-04-29T12:25:12;101042.08;;;19.16;47.55
27304;BME280;14791;52.392;13.092;2023-04-29T12:27:41;101043.78;;;19.17;47.33
27304;BME280;14791;52.392;13.092;2023-04-29T12:30:11;101041.07;;;19.17;47.25
27304;BME280;14791;52.392;13.092;2023-04-29T12:32:40;101042.50;;;19.21;47.26
27304;BME280;14791;52.392;13.092;2023-04-29T12:35:16;101042.71;;;19.23;47.10
27304;BME280;14791;52.392;13.092;2023-04-29T12:37:49;101044.78;;;19.25;47.06
27304;BME280;14791;52.392;13.092;2023-04-29T12:40:18;101041.41;;;19.27;46.99
27304;BME280;14791;52.392;13.092;2023-04-29T12:42:47;101045.55;;;19.31;47.01
27304;BME280;14791;52.392;13.092;2023-04-29T12:45:27;101045.25;;;19.34;47.05
27304;BME280;14791;52.392;13.092;2023-04-29T12:47:58;101055.02;;;19.41;46.87
27304;BME280;14791;52.392;13.092;2023-04-29T12:50:35;101056.58;;;19.44;47.05
27304;BME280;14791;52.392;13.092;2023-04-29T12:53:07;101058.80;;;19.54;47.17
27304;BME280;14791;52.392;13.092;2023-04-29T12:55:37;101065.25;;;19.67;47.30
27304;BME280;14791;52.392;13.092;2023-04-29T12:58:06;101066.38;;;19.84;47.26
27304;BME280;14791;52.392;13.092;2023-04-29T13:00:36;101059.20;;;20.02;47.03
27304;BME280;14791;52.392;13.092;2023-04-29T13:03:05;101059.77;;;20.19;46.79
27304;BME280;14791;52.392;13.092;2023-04-29T13:05:34;101058.11;;;20.36;46.50
27304;BME280;14791;52.392;13.092;2023-04-29T13:08:03;101061.81;;;20.49;46.30
27304;BME280;14791;52.392;13.092;2023-04-29T13:10:35;101055.91;;;20.64;46.16